Observations
| Time | Sensor | AQI | SAQ | Temp °C | Hum % | Pres Pa | CO μg/m³ | H₂S μg/m³ | NO μg/m³ | NO₂ μg/m³ | O₃ μg/m³ | SO₂ μg/m³ | CO₂e PPM | VOC PPM | PM1 μg/m³ | PM2.5 μg/m³ | PM4 μg/m³ | PM10 μg/m³ | TPS µm |
|---|---|---|---|---|---|---|---|---|---|---|---|---|---|---|---|---|---|---|---|
| Thursday 13 August 2026 | |||||||||||||||||||
| 01:40 | Trim Patrick St | 2 | 20.9 | 66 | 78,789 | 0 | 13.7 | 1.1 | 50.95 | 39.28 | 4.53 | 7.14 | 11.97 | 13.17 | |||||
| 01:39 | Trim Patrick St | 2 | 20.9 | 66 | 78,383 | 0 | 8.77 | 1.09 | 30.18 | 38.74 | 4.52 | 6.29 | 10.5 | 11.55 | |||||
| 01:38 | Trim Patrick St | 2 | 20.9 | 66 | 78,179 | 0 | 7.72 | 1.11 | 20.33 | 46.75 | 4.39 | 5.43 | 8.32 | 9.15 | |||||
| 01:38 | Trim Market St | 3 | 21.7 | 62 | 57,780 | 0 | 0 | 1.12 | 19.02 | 57.58 | 0 | 2.14 | 4.43 | 7.53 | |||||
| 01:37 | Trim Patrick St | 2 | 20.9 | 66 | 77,996 | 0 | 9.99 | 1.11 | 17.91 | 46.22 | 5.22 | 7.14 | 10.52 | 11.57 | |||||
| 01:36 | Trim Patrick St | 2 | 21 | 66 | 77,661 | 0 | 12.46 | 1.09 | 35.06 | 38.82 | 4.69 | 5.43 | 9.8 | 10.78 | |||||
| 01:35 | Trim Patrick St | 3 | 21 | 66 | 77,280 | 0 | 10.43 | 1.1 | 39.56 | 38.24 | 4.16 | 4.57 | 9.81 | 10.79 | |||||
| 01:34 | Trim Patrick St | 3 | 21 | 66 | 77,011 | 0 | 9.64 | 1.1 | 19.21 | 49.07 | 5.07 | 3.71 | 8.35 | 9.19 | |||||
| 01:33 | Trim Patrick St | 3 | 21 | 66 | 76,871 | 0 | 13.62 | 1.1 | 31.89 | 45.48 | 4.85 | 5.43 | 9.09 | 10 | |||||
| 01:32 | Trim Patrick St | 3 | 21 | 65 | 76,733 | 0 | 11.51 | 1.12 | 47.43 | 33.7 | 3.61 | 5.43 | 9.1 | 10.01 | |||||
| 01:32 | Trim Market St | 3 | 21.8 | 61 | 57,819 | 0 | 0 | 1.11 | 34.96 | 42.01 | 0 | 2.14 | 4.46 | 6.17 | |||||
| 01:31 | Trim Patrick St | 3 | 21.1 | 65 | 76,608 | 0 | 7.53 | 1.1 | 12.71 | 54.37 | 4.82 | 3.71 | 8.38 | 9.22 | |||||
| 01:31 | Trim Market St | 3 | 21.8 | 61 | 57,827 | 0 | 0 | 1.11 | 27.71 | 54.55 | 0 | 3.56 | 4.97 | 6.85 | |||||
| 01:30 | Trim Patrick St | 3 | 21 | 62 | 76,533 | 0 | 12.41 | 1.18 | 39.46 | 32.59 | 4.6 | 6.29 | 10.81 | 11.89 | |||||
| 01:30 | Trim Market St | 3 | 21.8 | 61 | 57,830 | 0 | 0 | 1.11 | 22.98 | 60.29 | 0 | 2.14 | 3.98 | 5.49 | |||||
| 01:29 | Trim Patrick St | 3 | 21.1 | 65 | 76,372 | 0 | 12.51 | 1.1 | 30.34 | 40.69 | 4.69 | 4.57 | 8.39 | 9.23 | |||||
| 01:29 | Trim Market St | 3 | 21.8 | 61 | 57,838 | 0 | 0 | 1.11 | 19.57 | 48.82 | 0 | 2.85 | 4.98 | 6.85 | |||||
| 01:28 | Trim Patrick St | 3 | 21.1 | 65 | 76,262 | 0 | 10.9 | 1.11 | 30.85 | 44.88 | 4.74 | 7.14 | 12.06 | 13.27 | |||||
| 01:28 | Trim Market St | 3 | 21.8 | 61 | 57,843 | 0 | 0 | 1.12 | 19.57 | 60.61 | 0 | 3.56 | 4.98 | 6.85 | |||||
| 01:27 | Trim Patrick St | 3 | 21.1 | 65 | 76,199 | 0 | 9.14 | 1.11 | 35.16 | 37.8 | 4.17 | 4.57 | 9.16 | 10.07 | |||||